createdAt,value
2023-02-11T00:00:20.629Z,83.95
2023-02-11T00:02:48.082Z,83.70
2023-02-11T00:05:15.000Z,84.45
2023-02-11T00:07:41.424Z,84.04
2023-02-11T00:10:17.205Z,84.58
2023-02-11T00:12:43.709Z,84.47
2023-02-11T00:15:10.226Z,84.14
2023-02-11T00:17:36.592Z,83.80
2023-02-11T00:20:03.196Z,83.64
2023-02-11T00:22:29.591Z,83.68
2023-02-11T00:24:57.048Z,83.68
2023-02-11T00:27:23.390Z,83.45
2023-02-11T00:29:49.740Z,83.37
2023-02-11T00:32:16.120Z,83.62
2023-02-11T00:34:42.495Z,83.53
2023-02-11T00:37:08.914Z,84.12
2023-02-11T00:39:38.207Z,83.75
2023-02-11T00:42:05.031Z,83.55
2023-02-11T00:44:31.391Z,83.59
2023-02-11T00:46:57.874Z,83.72
2023-02-11T00:49:25.150Z,83.66
2023-02-11T00:51:51.481Z,83.52
2023-02-11T00:54:17.812Z,83.44
2023-02-11T00:56:44.158Z,83.38
2023-02-11T00:59:10.565Z,83.71
2023-02-11T01:01:37.088Z,83.58
2023-02-11T01:04:03.539Z,83.63
2023-02-11T01:06:30.089Z,83.29
2023-02-11T01:08:56.468Z,83.42
2023-02-11T01:11:22.850Z,83.56
2023-02-11T01:13:50.456Z,83.51
2023-02-11T01:16:17.725Z,83.44
2023-02-11T01:18:44.373Z,83.19
2023-02-11T01:21:10.982Z,83.92
2023-02-11T01:23:37.337Z,84.04
2023-02-11T01:26:04.026Z,83.43
2023-02-11T01:28:30.790Z,83.75
2023-02-11T01:30:57.505Z,83.91
2023-02-11T01:33:24.372Z,83.14
2023-02-11T01:35:51.992Z,83.35
2023-02-11T01:38:22.185Z,83.99
2023-02-11T01:41:09.400Z,83.90
2023-02-11T01:43:38.936Z,83.83
2023-02-11T01:46:13.783Z,83.31
2023-02-11T01:48:46.737Z,84.25
2023-02-11T01:51:17.328Z,83.36
2023-02-11T01:54:03.543Z,83.68
2023-02-11T01:56:49.738Z,83.70
2023-02-11T01:59:38.611Z,83.60
2023-02-11T02:02:10.271Z,83.62
2023-02-11T02:04:44.113Z,84.15
2023-02-11T02:07:16.555Z,83.58
2023-02-11T02:09:49.924Z,83.59
2023-02-11T02:12:16.351Z,84.13
2023-02-11T02:14:42.891Z,83.62
2023-02-11T02:17:34.102Z,84.17
2023-02-11T02:20:11.771Z,84.63
2023-02-11T02:22:42.559Z,83.96
2023-02-11T02:25:46.052Z,84.02
2023-02-11T02:28:33.664Z,84.35
2023-02-11T02:31:02.996Z,84.66
2023-02-11T02:34:10.295Z,85.14
2023-02-11T02:36:42.658Z,84.50
2023-02-11T02:39:18.881Z,83.98
2023-02-11T02:41:46.227Z,84.52
2023-02-11T02:44:12.866Z,84.90
2023-02-11T02:46:39.494Z,84.99
2023-02-11T02:49:09.922Z,84.81
2023-02-11T02:51:58.685Z,84.60
2023-02-11T02:54:57.065Z,85.38
2023-02-11T02:57:41.956Z,85.76
2023-02-11T03:00:51.960Z,85.60
2023-02-11T03:03:21.276Z,84.78
2023-02-11T03:06:02.451Z,85.29
2023-02-11T03:08:46.176Z,85.09
2023-02-11T03:11:15.831Z,84.59
2023-02-11T03:13:43.244Z,85.21
2023-02-11T03:16:30.173Z,85.17
2023-02-11T03:19:03.597Z,85.32
2023-02-11T03:21:32.064Z,85.14
2023-02-11T03:24:00.682Z,84.87
2023-02-11T03:26:38.400Z,85.24
2023-02-11T03:29:10.829Z,84.82
2023-02-11T03:31:44.696Z,85.33
2023-02-11T03:34:35.573Z,85.46
2023-02-11T03:37:06.416Z,85.48
2023-02-11T03:39:36.639Z,85.40
2023-02-11T03:42:04.314Z,85.57
2023-02-11T03:44:35.058Z,85.49
2023-02-11T03:47:03.320Z,85.91
2023-02-11T03:49:29.584Z,85.50
2023-02-11T03:51:56.699Z,85.78
2023-02-11T03:54:29.449Z,85.55
2023-02-11T03:56:59.066Z,85.01
2023-02-11T03:59:26.027Z,85.74
2023-02-11T04:01:52.765Z,85.29
2023-02-11T04:04:19.635Z,85.40
2023-02-11T04:06:46.187Z,85.76
2023-02-11T04:09:12.658Z,85.38
2023-02-11T04:11:39.009Z,85.49
2023-02-11T04:14:05.528Z,86.05
2023-02-11T04:16:31.963Z,85.28
2023-02-11T04:18:58.363Z,85.50
2023-02-11T04:21:24.814Z,85.14
2023-02-11T04:23:51.161Z,85.07
2023-02-11T04:26:17.625Z,85.45
2023-02-11T04:28:43.991Z,85.25
2023-02-11T04:31:11.931Z,85.67
2023-02-11T04:33:38.382Z,85.32
2023-02-11T04:36:05.061Z,85.30
2023-02-11T04:38:32.486Z,85.27
2023-02-11T04:41:00.387Z,84.98
2023-02-11T04:43:26.780Z,85.13
2023-02-11T04:45:57.164Z,85.30
2023-02-11T04:48:23.580Z,85.38
2023-02-11T04:50:49.929Z,85.02
2023-02-11T04:53:16.256Z,85.17
2023-02-11T04:55:42.616Z,84.53
2023-02-11T04:58:08.972Z,85.13
2023-02-11T05:00:35.296Z,84.81
2023-02-11T05:03:01.623Z,84.64
2023-02-11T05:05:28.030Z,84.79
2023-02-11T05:07:54.346Z,84.97
2023-02-11T05:10:20.685Z,84.87
2023-02-11T05:12:49.160Z,85.52
2023-02-11T05:15:15.760Z,85.45
2023-02-11T05:17:42.146Z,85.45
2023-02-11T05:20:09.145Z,84.94
2023-02-11T05:22:35.511Z,85.18
2023-02-11T05:25:01.851Z,84.95
2023-02-11T05:27:28.254Z,85.27
2023-02-11T05:29:54.576Z,85.52
2023-02-11T05:32:21.007Z,85.37
2023-02-11T05:34:47.380Z,85.09
2023-02-11T05:37:13.805Z,84.45
2023-02-11T05:39:40.288Z,84.85
2023-02-11T05:42:06.782Z,84.60
2023-02-11T05:44:33.142Z,84.58
2023-02-11T05:46:59.517Z,83.71
2023-02-11T05:49:25.887Z,84.35
2023-02-11T05:51:52.305Z,84.63
2023-02-11T05:54:18.654Z,84.26
2023-02-11T05:56:45.139Z,84.50
2023-02-11T05:59:13.825Z,84.60
2023-02-11T06:01:40.425Z,84.34
2023-02-11T06:04:06.762Z,84.13
2023-02-11T06:06:33.107Z,84.16
2023-02-11T06:08:59.493Z,83.71
2023-02-11T06:11:25.881Z,84.28
2023-02-11T06:13:52.728Z,84.30
2023-02-11T06:16:19.164Z,83.92
2023-02-11T06:18:45.594Z,84.15
2023-02-11T06:21:11.968Z,83.92
2023-02-11T06:23:38.726Z,83.87
2023-02-11T06:26:06.949Z,84.09
2023-02-11T06:28:33.553Z,84.18
2023-02-11T06:31:06.623Z,84.09
2023-02-11T06:33:34.133Z,84.33
2023-02-11T06:36:00.709Z,84.34
2023-02-11T06:38:27.113Z,84.74
2023-02-11T06:40:53.527Z,84.58
2023-02-11T06:43:19.998Z,84.77
2023-02-11T06:45:52.956Z,84.44
2023-02-11T06:48:19.360Z,85.02
2023-02-11T06:50:45.773Z,84.98
2023-02-11T06:53:12.122Z,84.81
2023-02-11T06:55:38.558Z,84.67
2023-02-11T06:58:04.990Z,85.03
2023-02-11T07:00:31.413Z,84.92
2023-02-11T07:02:57.789Z,84.62
2023-02-11T07:05:24.152Z,84.85
2023-02-11T07:07:50.647Z,84.79
2023-02-11T07:10:17.027Z,85.25
2023-02-11T07:12:43.428Z,85.50
2023-02-11T07:15:10.020Z,85.17
2023-02-11T07:17:36.588Z,84.97
2023-02-11T07:20:03.393Z,85.07
2023-02-11T07:22:29.866Z,84.65
2023-02-11T07:24:56.217Z,84.74
2023-02-11T07:27:22.546Z,84.75
2023-02-11T07:29:48.959Z,84.22
2023-02-11T07:32:15.447Z,84.16
2023-02-11T07:34:41.895Z,84.74
2023-02-11T07:37:08.393Z,84.11
2023-02-11T07:39:34.928Z,84.38
2023-02-11T07:42:01.291Z,84.13
2023-02-11T07:44:27.679Z,84.23
2023-02-11T07:46:54.165Z,83.86
2023-02-11T07:49:20.517Z,83.84
2023-02-11T07:51:47.851Z,83.29
2023-02-11T07:54:14.253Z,83.34
2023-02-11T07:56:40.710Z,83.50
2023-02-11T07:59:07.137Z,83.96
2023-02-11T08:01:33.542Z,83.69
2023-02-11T08:04:01.218Z,83.20
2023-02-11T08:06:30.523Z,83.10
2023-02-11T08:08:56.983Z,83.25
2023-02-11T08:11:25.708Z,83.10
2023-02-11T08:13:52.861Z,83.60
2023-02-11T08:16:30.802Z,82.72
2023-02-11T08:19:00.124Z,83.05
2023-02-11T08:21:27.401Z,82.62
2023-02-11T08:23:54.949Z,82.78
2023-02-11T08:26:24.324Z,82.84
2023-02-11T08:28:52.411Z,83.04
2023-02-11T08:31:21.868Z,82.71
2023-02-11T08:33:48.604Z,83.33
2023-02-11T08:36:18.222Z,82.30
2023-02-11T08:38:44.896Z,83.08
2023-02-11T08:41:11.731Z,82.34
2023-02-11T08:43:41.555Z,82.91
2023-02-11T08:46:09.238Z,82.44
2023-02-11T08:48:35.749Z,82.69
2023-02-11T08:51:06.654Z,82.21
2023-02-11T08:53:32.969Z,82.09
2023-02-11T08:55:59.447Z,81.90
2023-02-11T08:58:25.794Z,82.17
2023-02-11T09:00:52.479Z,82.13
2023-02-11T09:03:19.123Z,81.43
2023-02-11T09:05:47.417Z,81.06
2023-02-11T09:08:14.300Z,81.34
2023-02-11T09:10:40.854Z,81.23
2023-02-11T09:13:07.803Z,80.15
2023-02-11T09:15:34.797Z,79.48
2023-02-11T09:18:01.742Z,79.92
2023-02-11T09:20:28.224Z,79.68
2023-02-11T09:22:57.382Z,79.83
2023-02-11T09:25:23.990Z,79.95
2023-02-11T09:27:51.294Z,79.61
2023-02-11T09:30:17.675Z,79.66
2023-02-11T09:32:44.050Z,79.02
2023-02-11T09:35:10.524Z,78.92
2023-02-11T09:37:37.499Z,79.33
2023-02-11T09:40:04.440Z,78.59
2023-02-11T09:42:41.995Z,78.50
2023-02-11T09:45:16.528Z,78.90
2023-02-11T09:47:45.848Z,78.56
2023-02-11T09:50:33.976Z,78.72
2023-02-11T09:53:01.969Z,78.59
2023-02-11T09:55:37.621Z,78.23
2023-02-11T09:58:07.785Z,78.04
2023-02-11T10:00:39.919Z,77.80
2023-02-11T10:03:33.102Z,77.55
2023-02-11T10:06:19.872Z,78.03
2023-02-11T10:09:01.245Z,77.50
2023-02-11T10:12:09.099Z,77.38
2023-02-11T10:15:06.444Z,76.91
2023-02-11T10:17:41.466Z,76.08
2023-02-11T10:20:44.049Z,76.43
2023-02-11T10:23:27.022Z,76.42
2023-02-11T10:25:56.133Z,76.33
2023-02-11T10:28:29.468Z,76.46
2023-02-11T10:31:04.915Z,76.09
2023-02-11T10:33:46.360Z,76.41
2023-02-11T10:36:14.549Z,76.40
2023-02-11T10:38:40.812Z,76.26
2023-02-11T10:41:21.075Z,76.46
2023-02-11T10:43:47.477Z,76.23
2023-02-11T10:46:19.697Z,76.09
2023-02-11T10:48:52.678Z,75.56
2023-02-11T10:51:28.412Z,75.50
2023-02-11T10:54:04.033Z,75.74
2023-02-11T10:56:38.317Z,75.71
2023-02-11T10:59:07.279Z,75.30
2023-02-11T11:01:41.329Z,75.00
2023-02-11T11:04:26.182Z,75.42
2023-02-11T11:06:52.706Z,75.27
2023-02-11T11:09:33.086Z,75.34
2023-02-11T11:11:59.469Z,74.75
2023-02-11T11:14:29.550Z,74.76
2023-02-11T11:16:55.937Z,75.41
2023-02-11T11:19:24.418Z,74.75
2023-02-11T11:21:55.596Z,74.74
2023-02-11T11:24:41.511Z,74.62
2023-02-11T11:27:18.149Z,74.48
2023-02-11T11:29:50.015Z,74.76
2023-02-11T11:32:22.374Z,74.89
2023-02-11T11:34:56.813Z,75.13
2023-02-11T11:37:27.125Z,74.66
2023-02-11T11:39:59.920Z,74.45
2023-02-11T11:42:29.512Z,74.80
2023-02-11T11:45:15.364Z,74.59
2023-02-11T11:47:48.746Z,75.40
2023-02-11T11:50:45.199Z,75.45
2023-02-11T11:53:21.269Z,74.98
2023-02-11T11:55:51.579Z,75.27
2023-02-11T11:58:22.585Z,75.06
2023-02-11T12:01:00.310Z,74.92
2023-02-11T12:04:06.041Z,74.41
2023-02-11T12:06:45.469Z,74.65
2023-02-11T12:09:30.752Z,74.55
2023-02-11T12:12:15.879Z,74.63
2023-02-11T12:15:00.080Z,74.46
2023-02-11T12:17:43.023Z,74.64
2023-02-11T12:20:18.076Z,74.34
2023-02-11T12:23:15.120Z,74.74
2023-02-11T12:26:00.810Z,75.17
2023-02-11T12:28:58.095Z,75.10
2023-02-11T12:31:53.298Z,75.08
2023-02-11T12:34:32.346Z,74.84
2023-02-11T12:37:09.366Z,74.58
2023-02-11T12:40:14.550Z,75.68
2023-02-11T12:43:10.187Z,75.19
2023-02-11T12:46:01.951Z,74.42
2023-02-11T12:48:46.565Z,75.22
2023-02-11T12:51:40.619Z,75.47
2023-02-11T12:54:09.883Z,74.45
2023-02-11T12:57:02.499Z,75.49
2023-02-11T12:59:40.961Z,75.13
2023-02-11T13:02:29.171Z,75.69
2023-02-11T13:05:05.017Z,75.41
2023-02-11T13:07:37.035Z,74.88
2023-02-11T13:10:16.558Z,75.57
2023-02-11T13:13:05.331Z,75.12
2023-02-11T13:15:31.890Z,75.67
2023-02-11T13:18:12.925Z,75.64
2023-02-11T13:20:48.747Z,75.99
2023-02-11T13:23:25.860Z,76.21
2023-02-11T13:26:21.543Z,75.51
2023-02-11T13:29:16.097Z,75.99
2023-02-11T13:31:42.638Z,75.48
2023-02-11T13:34:41.390Z,75.66
2023-02-11T13:37:26.631Z,76.69
2023-02-11T13:40:01.632Z,76.09
2023-02-11T13:42:29.367Z,76.32
2023-02-11T13:44:56.415Z,76.55
2023-02-11T13:47:31.791Z,76.70
2023-02-11T13:49:59.287Z,76.71
2023-02-11T13:52:37.264Z,76.89
2023-02-11T13:55:24.169Z,76.56
2023-02-11T13:58:06.047Z,76.77
2023-02-11T14:00:35.372Z,77.30
2023-02-11T14:03:50.932Z,76.76
2023-02-11T14:06:44.928Z,77.09
2023-02-11T14:09:14.366Z,77.44
2023-02-11T14:11:40.883Z,77.75
2023-02-11T14:14:21.706Z,78.23
2023-02-11T14:17:00.628Z,77.93
2023-02-11T14:19:35.699Z,78.18
2023-02-11T14:22:13.312Z,78.57
2023-02-11T14:24:46.722Z,78.90
2023-02-11T14:27:22.996Z,78.75
2023-02-11T14:30:06.908Z,79.18
2023-02-11T14:33:01.473Z,78.59
2023-02-11T14:35:34.760Z,78.87
2023-02-11T14:38:06.964Z,79.34
2023-02-11T14:40:39.002Z,79.17
2023-02-11T14:43:13.082Z,78.56
2023-02-11T14:45:40.197Z,79.21
2023-02-11T14:48:15.474Z,78.87
2023-02-11T14:50:48.746Z,78.50
2023-02-11T14:53:21.258Z,79.13
2023-02-11T14:55:52.340Z,79.35
2023-02-11T14:58:22.884Z,78.93
2023-02-11T15:01:09.017Z,78.73
2023-02-11T15:03:39.915Z,78.92
2023-02-11T15:06:13.370Z,78.79
2023-02-11T15:08:44.560Z,78.86
2023-02-11T15:11:14.316Z,79.00
2023-02-11T15:13:47.866Z,78.69
2023-02-11T15:16:18.501Z,78.19
2023-02-11T15:18:48.421Z,79.45
2023-02-11T15:21:21.570Z,78.81
2023-02-11T15:24:05.885Z,78.62
2023-02-11T15:26:33.225Z,78.38
2023-02-11T15:29:00.688Z,78.65
2023-02-11T15:31:28.122Z,78.15
2023-02-11T15:33:55.029Z,78.45
2023-02-11T15:36:28.510Z,78.30
2023-02-11T15:39:32.813Z,78.62
2023-02-11T15:42:18.837Z,77.89
2023-02-11T15:44:45.928Z,78.25
2023-02-11T15:47:18.483Z,78.41
2023-02-11T15:49:46.674Z,77.55
2023-02-11T15:52:15.143Z,77.65
2023-02-11T15:54:46.283Z,77.60
2023-02-11T15:57:12.865Z,77.82
2023-02-11T15:59:41.397Z,77.78
2023-02-11T16:02:18.632Z,77.39
2023-02-11T16:04:51.164Z,78.33
2023-02-11T16:07:57.086Z,77.84
2023-02-11T16:10:33.266Z,77.87
2023-02-11T16:13:03.599Z,78.35
2023-02-11T16:15:46.014Z,78.40
2023-02-11T16:18:26.446Z,78.47
2023-02-11T16:21:02.395Z,78.17
2023-02-11T16:23:33.365Z,78.44
2023-02-11T16:26:31.757Z,78.34
2023-02-11T16:29:04.620Z,77.63
2023-02-11T16:31:36.889Z,78.27
2023-02-11T16:34:08.201Z,78.06
2023-02-11T16:36:34.697Z,78.36
2023-02-11T16:39:01.185Z,78.08
2023-02-11T16:41:27.772Z,78.43
2023-02-11T16:43:57.063Z,78.31
2023-02-11T16:46:23.718Z,78.13
2023-02-11T16:48:50.747Z,78.60
2023-02-11T16:51:17.287Z,78.91
2023-02-11T16:53:43.754Z,78.45
2023-02-11T16:56:19.347Z,78.61
2023-02-11T16:58:45.963Z,78.39
2023-02-11T17:01:14.110Z,78.73
2023-02-11T17:03:41.387Z,79.11
2023-02-11T17:06:11.107Z,79.11
2023-02-11T17:08:37.618Z,78.85
2023-02-11T17:11:04.421Z,78.77
2023-02-11T17:13:31.109Z,78.33
2023-02-11T17:15:57.913Z,78.55
2023-02-11T17:18:24.451Z,78.97
2023-02-11T17:20:51.099Z,78.45
2023-02-11T17:23:17.595Z,78.20
2023-02-11T17:25:44.066Z,78.32
2023-02-11T17:28:12.147Z,78.82
2023-02-11T17:30:41.584Z,77.95
2023-02-11T17:33:08.028Z,78.79
2023-02-11T17:35:34.572Z,78.23
2023-02-11T17:38:01.471Z,78.47
2023-02-11T17:40:27.923Z,78.82
2023-02-11T17:42:54.399Z,78.42
2023-02-11T17:45:22.409Z,78.47
2023-02-11T17:47:49.357Z,78.96
2023-02-11T17:50:15.835Z,78.33
2023-02-11T17:52:42.150Z,78.74
2023-02-11T17:55:08.799Z,78.38
2023-02-11T17:57:35.280Z,78.56
2023-02-11T18:00:01.727Z,78.92
2023-02-11T18:02:28.070Z,79.23
2023-02-11T18:04:57.332Z,79.16
2023-02-11T18:07:23.746Z,79.70
2023-02-11T18:09:50.142Z,79.54
2023-02-11T18:12:24.873Z,79.31
2023-02-11T18:14:56.109Z,79.45
2023-02-11T18:17:24.051Z,79.83
2023-02-11T18:19:50.452Z,79.22
2023-02-11T18:22:17.556Z,79.47
2023-02-11T18:24:44.105Z,79.68
2023-02-11T18:27:10.935Z,78.91
2023-02-11T18:29:37.505Z,79.84
2023-02-11T18:32:04.289Z,79.22
2023-02-11T18:34:31.880Z,79.54
2023-02-11T18:36:58.622Z,79.49
2023-02-11T18:39:26.750Z,79.61
2023-02-11T18:41:58.948Z,79.77
2023-02-11T18:44:34.000Z,80.14
2023-02-11T18:47:02.005Z,79.78
2023-02-11T18:49:38.041Z,79.63
2023-02-11T18:52:04.542Z,79.50
2023-02-11T18:54:30.922Z,80.31
2023-02-11T18:56:57.287Z,79.77
2023-02-11T18:59:23.739Z,80.10
2023-02-11T19:01:51.056Z,79.54
2023-02-11T19:04:19.813Z,79.57
2023-02-11T19:06:48.561Z,80.12
2023-02-11T19:09:17.337Z,80.10
2023-02-11T19:11:50.315Z,79.46
2023-02-11T19:14:24.939Z,79.75
2023-02-11T19:16:53.796Z,79.97
2023-02-11T19:19:23.974Z,80.06
2023-02-11T19:21:50.562Z,79.76
2023-02-11T19:24:21.104Z,79.97
2023-02-11T19:26:49.070Z,79.81
2023-02-11T19:29:15.414Z,80.48
2023-02-11T19:31:42.304Z,80.37
2023-02-11T19:34:11.048Z,80.29
2023-02-11T19:36:38.881Z,80.49
2023-02-11T19:39:08.514Z,79.91
2023-02-11T19:41:37.533Z,80.34
2023-02-11T19:44:08.878Z,80.47
2023-02-11T19:46:38.545Z,80.22
2023-02-11T19:49:05.477Z,80.39
2023-02-11T19:51:33.637Z,80.17
2023-02-11T19:54:00.448Z,80.41
2023-02-11T19:56:28.487Z,80.37
2023-02-11T19:58:58.316Z,80.20
2023-02-11T20:01:25.928Z,80.55
2023-02-11T20:03:53.798Z,80.67
2023-02-11T20:06:24.419Z,80.74
2023-02-11T20:08:58.335Z,80.25
2023-02-11T20:11:25.654Z,80.61
2023-02-11T20:13:52.458Z,81.15
2023-02-11T20:16:21.155Z,80.86
2023-02-11T20:18:49.200Z,81.01
2023-02-11T20:21:18.489Z,80.67
2023-02-11T20:23:46.706Z,81.03
2023-02-11T20:26:18.578Z,81.02
2023-02-11T20:28:45.964Z,81.13
2023-02-11T20:31:13.305Z,80.75
2023-02-11T20:33:40.765Z,81.00
2023-02-11T20:36:10.022Z,80.78
2023-02-11T20:38:37.368Z,81.13
2023-02-11T20:41:07.708Z,81.12
2023-02-11T20:43:36.933Z,81.44
2023-02-11T20:46:06.553Z,80.98
2023-02-11T20:48:34.705Z,81.04
2023-02-11T20:51:11.062Z,81.64
2023-02-11T20:53:40.106Z,81.61
2023-02-11T20:56:08.529Z,81.46
2023-02-11T20:58:36.132Z,81.13
2023-02-11T21:01:30.649Z,81.79
2023-02-11T21:04:03.230Z,81.10
2023-02-11T21:06:42.315Z,81.44
2023-02-11T21:09:11.625Z,81.72
2023-02-11T21:11:38.534Z,81.55
2023-02-11T21:14:06.615Z,82.36
2023-02-11T21:16:33.838Z,82.26
2023-02-11T21:19:04.220Z,82.83
2023-02-11T21:21:31.056Z,82.62
2023-02-11T21:23:58.549Z,82.37
2023-02-11T21:26:25.840Z,82.77
2023-02-11T21:28:52.624Z,82.96
2023-02-11T21:31:29.352Z,82.66
2023-02-11T21:33:56.777Z,83.48
2023-02-11T21:36:24.519Z,83.38
2023-02-11T21:38:54.512Z,82.99
2023-02-11T21:41:22.734Z,83.42
2023-02-11T21:43:50.427Z,82.92
2023-02-11T21:46:18.016Z,83.32
2023-02-11T21:48:44.993Z,82.89
2023-02-11T21:51:15.521Z,83.25
2023-02-11T21:53:42.141Z,83.17
2023-02-11T21:56:11.671Z,83.08
2023-02-11T21:58:38.940Z,83.05
2023-02-11T22:01:11.930Z,82.83
2023-02-11T22:03:42.412Z,82.55
2023-02-11T22:06:11.233Z,82.91
2023-02-11T22:08:38.615Z,82.86
2023-02-11T22:11:09.697Z,82.80
2023-02-11T22:13:39.929Z,83.18
2023-02-11T22:16:11.606Z,83.33
2023-02-11T22:18:38.312Z,83.22
2023-02-11T22:21:07.583Z,83.52
2023-02-11T22:23:34.201Z,83.70
2023-02-11T22:26:07.932Z,83.40
2023-02-11T22:28:35.333Z,83.41
2023-02-11T22:31:01.828Z,83.36
2023-02-11T22:33:28.624Z,83.91
2023-02-11T22:36:02.569Z,83.28
2023-02-11T22:38:29.914Z,82.67
2023-02-11T22:40:56.576Z,82.88
2023-02-11T22:43:23.232Z,83.58
2023-02-11T22:45:50.216Z,82.95
2023-02-11T22:48:17.229Z,82.67
2023-02-11T22:50:43.544Z,82.76
2023-02-11T22:53:09.976Z,83.26
2023-02-11T22:55:38.163Z,83.08
2023-02-11T22:58:05.165Z,82.84
2023-02-11T23:00:36.677Z,83.31
2023-02-11T23:03:03.738Z,82.98
2023-02-11T23:05:30.116Z,82.84
2023-02-11T23:07:56.562Z,82.81
2023-02-11T23:10:22.916Z,82.87
2023-02-11T23:12:49.250Z,82.88
2023-02-11T23:15:15.594Z,82.41
2023-02-11T23:17:41.915Z,82.79
2023-02-11T23:20:08.583Z,82.39
2023-02-11T23:22:34.954Z,82.64
2023-02-11T23:25:01.491Z,82.85
2023-02-11T23:27:27.842Z,82.38
2023-02-11T23:29:57.112Z,82.98
2023-02-11T23:32:23.561Z,82.91
2023-02-11T23:34:49.957Z,82.82
2023-02-11T23:37:16.368Z,82.48
2023-02-11T23:39:42.713Z,82.88
2023-02-11T23:42:09.359Z,82.76
2023-02-11T23:44:35.675Z,82.47
2023-02-11T23:47:02.101Z,82.65
2023-02-11T23:49:28.472Z,82.38
2023-02-11T23:51:54.844Z,82.27
2023-02-11T23:54:21.270Z,83.41
2023-02-11T23:56:47.640Z,82.92
2023-02-11T23:59:14.036Z,83.39
